sensor_id;sensor_type;location;lat;lon;timestamp;temperature;humidity
56725;DHT22;42608;52.776;6.968;2024-01-15T00:00:14;1.60;99.90
56725;DHT22;42608;52.776;6.968;2024-01-15T00:02:39;1.60;99.90
56725;DHT22;42608;52.776;6.968;2024-01-15T00:05:05;1.60;99.90
56725;DHT22;42608;52.776;6.968;2024-01-15T00:07:30;1.60;99.90
56725;DHT22;42608;52.776;6.968;2024-01-15T00:09:56;1.60;99.90
56725;DHT22;42608;52.776;6.968;2024-01-15T00:12:21;1.60;99.90
56725;DHT22;42608;52.776;6.968;2024-01-15T00:14:47;1.70;99.90
56725;DHT22;42608;52.776;6.968;2024-01-15T00:17:15;1.60;99.90
56725;DHT22;42608;52.776;6.968;2024-01-15T00:19:41;1.60;99.90
56725;DHT22;42608;52.776;6.968;2024-01-15T00:22:06;1.60;99.90
56725;DHT22;42608;52.776;6.968;2024-01-15T00:24:32;1.60;99.90
56725;DHT22;42608;52.776;6.968;2024-01-15T00:26:57;1.60;99.90
56725;DHT22;42608;52.776;6.968;2024-01-15T00:29:23;1.60;99.90
56725;DHT22;42608;52.776;6.968;2024-01-15T00:31:49;1.60;99.90
56725;DHT22;42608;52.776;6.968;2024-01-15T00:34:14;1.60;99.90
56725;DHT22;42608;52.776;6.968;2024-01-15T00:36:40;1.60;99.90
56725;DHT22;42608;52.776;6.968;2024-01-15T00:39:05;1.60;99.90
56725;DHT22;42608;52.776;6.968;2024-01-15T00:41:31;1.60;99.90
56725;DHT22;42608;52.776;6.968;2024-01-15T00:43:57;1.60;99.90
56725;DHT22;42608;52.776;6.968;2024-01-15T00:46:22;1.70;99.90
56725;DHT22;42608;52.776;6.968;2024-01-15T00:48:48;1.70;99.90
56725;DHT22;42608;52.776;6.968;2024-01-15T00:51:13;1.70;99.90
56725;DHT22;42608;52.776;6.968;2024-01-15T00:53:39;1.70;99.90
56725;DHT22;42608;52.776;6.968;2024-01-15T00:56:05;1.70;99.90
56725;DHT22;42608;52.776;6.968;2024-01-15T00:58:33;1.70;99.90
56725;DHT22;42608;52.776;6.968;2024-01-15T01:00:59;1.70;99.90
56725;DHT22;42608;52.776;6.968;2024-01-15T01:03:24;1.70;99.90
56725;DHT22;42608;52.776;6.968;2024-01-15T01:05:50;1.70;99.90
56725;DHT22;42608;52.776;6.968;2024-01-15T01:08:16;1.70;99.90
56725;DHT22;42608;52.776;6.968;2024-01-15T01:10:41;1.70;99.90
56725;DHT22;42608;52.776;6.968;2024-01-15T01:13:10;1.80;99.90
56725;DHT22;42608;52.776;6.968;2024-01-15T01:15:35;1.80;99.90
56725;DHT22;42608;52.776;6.968;2024-01-15T01:18:01;1.80;99.90
56725;DHT22;42608;52.776;6.968;2024-01-15T01:20:26;1.80;99.90
56725;DHT22;42608;52.776;6.968;2024-01-15T01:22:52;1.90;99.90
56725;DHT22;42608;52.776;6.968;2024-01-15T01:25:17;1.80;99.90
56725;DHT22;42608;52.776;6.968;2024-01-15T01:27:43;1.90;99.90
56725;DHT22;42608;52.776;6.968;2024-01-15T01:30:09;1.80;99.90
56725;DHT22;42608;52.776;6.968;2024-01-15T01:32:34;1.80;99.90
56725;DHT22;42608;52.776;6.968;2024-01-15T01:35:03;1.90;99.90
56725;DHT22;42608;52.776;6.968;2024-01-15T01:37:29;1.80;99.90
56725;DHT22;42608;52.776;6.968;2024-01-15T01:39:55;1.90;99.90
56725;DHT22;42608;52.776;6.968;2024-01-15T01:42:20;1.80;99.90
56725;DHT22;42608;52.776;6.968;2024-01-15T01:44:46;1.80;99.90
56725;DHT22;42608;52.776;6.968;2024-01-15T01:47:11;1.90;99.90
56725;DHT22;42608;52.776;6.968;2024-01-15T01:49:37;1.80;99.90
56725;DHT22;42608;52.776;6.968;2024-01-15T01:52:04;1.90;99.90
56725;DHT22;42608;52.776;6.968;2024-01-15T01:54:31;1.90;99.90
56725;DHT22;42608;52.776;6.968;2024-01-15T01:56:57;1.80;99.90
56725;DHT22;42608;52.776;6.968;2024-01-15T01:59:26;1.80;99.90
56725;DHT22;42608;52.776;6.968;2024-01-15T02:01:53;1.80;99.90
56725;DHT22;42608;52.776;6.968;2024-01-15T02:04:19;1.70;99.90
56725;DHT22;42608;52.776;6.968;2024-01-15T02:06:46;1.80;99.90
56725;DHT22;42608;52.776;6.968;2024-01-15T02:09:11;1.70;99.90
56725;DHT22;42608;52.776;6.968;2024-01-15T02:11:40;1.70;99.90
56725;DHT22;42608;52.776;6.968;2024-01-15T02:14:06;1.70;99.90
56725;DHT22;42608;52.776;6.968;2024-01-15T02:16:32;1.60;99.90
56725;DHT22;42608;52.776;6.968;2024-01-15T02:18:57;1.60;99.90
56725;DHT22;42608;52.776;6.968;2024-01-15T02:21:23;1.50;99.90
56725;DHT22;42608;52.776;6.968;2024-01-15T02:23:48;1.50;99.90
56725;DHT22;42608;52.776;6.968;2024-01-15T02:26:14;1.50;99.90
56725;DHT22;42608;52.776;6.968;2024-01-15T02:28:39;1.50;99.90
56725;DHT22;42608;52.776;6.968;2024-01-15T02:31:06;1.50;99.90
56725;DHT22;42608;52.776;6.968;2024-01-15T02:33:32;1.50;99.90
56725;DHT22;42608;52.776;6.968;2024-01-15T02:35:58;1.50;99.90
56725;DHT22;42608;52.776;6.968;2024-01-15T02:38:23;1.50;99.90
56725;DHT22;42608;52.776;6.968;2024-01-15T02:40:51;1.50;99.90
56725;DHT22;42608;52.776;6.968;2024-01-15T02:43:17;1.50;99.90
56725;DHT22;42608;52.776;6.968;2024-01-15T02:45:44;1.50;99.90
56725;DHT22;42608;52.776;6.968;2024-01-15T02:48:10;1.50;99.90
56725;DHT22;42608;52.776;6.968;2024-01-15T02:50:37;1.50;99.90
56725;DHT22;42608;52.776;6.968;2024-01-15T02:53:02;1.50;99.90
56725;DHT22;42608;52.776;6.968;2024-01-15T02:55:31;1.50;99.90
56725;DHT22;42608;52.776;6.968;2024-01-15T02:57:56;1.50;99.90
56725;DHT22;42608;52.776;6.968;2024-01-15T03:00:22;1.50;99.90
56725;DHT22;42608;52.776;6.968;2024-01-15T03:02:49;1.50;99.90
56725;DHT22;42608;52.776;6.968;2024-01-15T03:05:15;1.50;99.90
56725;DHT22;42608;52.776;6.968;2024-01-15T03:07:41;1.50;99.90
56725;DHT22;42608;52.776;6.968;2024-01-15T03:10:07;1.50;99.90
56725;DHT22;42608;52.776;6.968;2024-01-15T03:12:32;1.50;99.90
56725;DHT22;42608;52.776;6.968;2024-01-15T03:14:58;1.60;99.90
56725;DHT22;42608;52.776;6.968;2024-01-15T03:17:23;1.60;99.90
56725;DHT22;42608;52.776;6.968;2024-01-15T03:19:49;1.60;99.90
56725;DHT22;42608;52.776;6.968;2024-01-15T03:22:17;1.60;99.90
56725;DHT22;42608;52.776;6.968;2024-01-15T03:24:43;1.60;99.90
56725;DHT22;42608;52.776;6.968;2024-01-15T03:27:09;1.60;99.90
56725;DHT22;42608;52.776;6.968;2024-01-15T03:29:34;1.70;99.90
56725;DHT22;42608;52.776;6.968;2024-01-15T03:32:00;1.70;99.90
56725;DHT22;42608;52.776;6.968;2024-01-15T03:34:25;1.70;99.90
56725;DHT22;42608;52.776;6.968;2024-01-15T03:36:51;1.70;99.90
56725;DHT22;42608;52.776;6.968;2024-01-15T03:39:16;1.70;99.90
56725;DHT22;42608;52.776;6.968;2024-01-15T03:41:42;1.70;99.90
56725;DHT22;42608;52.776;6.968;2024-01-15T03:44:08;1.70;99.90
56725;DHT22;42608;52.776;6.968;2024-01-15T03:46:33;1.70;99.90
56725;DHT22;42608;52.776;6.968;2024-01-15T03:48:59;1.70;99.90
56725;DHT22;42608;52.776;6.968;2024-01-15T03:51:24;1.70;99.90
56725;DHT22;42608;52.776;6.968;2024-01-15T03:53:50;1.70;99.90
56725;DHT22;42608;52.776;6.968;2024-01-15T03:56:15;1.70;99.90
56725;DHT22;42608;52.776;6.968;2024-01-15T03:58:41;1.70;99.90
56725;DHT22;42608;52.776;6.968;2024-01-15T04:01:10;1.70;99.90
56725;DHT22;42608;52.776;6.968;2024-01-15T04:03:35;1.60;99.90
56725;DHT22;42608;52.776;6.968;2024-01-15T04:06:01;1.70;99.90
56725;DHT22;42608;52.776;6.968;2024-01-15T04:08:27;1.70;99.90
56725;DHT22;42608;52.776;6.968;2024-01-15T04:10:52;1.70;99.90
56725;DHT22;42608;52.776;6.968;2024-01-15T04:13:18;1.80;99.90
56725;DHT22;42608;52.776;6.968;2024-01-15T04:15:43;1.80;99.90
56725;DHT22;42608;52.776;6.968;2024-01-15T04:18:09;1.80;99.90
56725;DHT22;42608;52.776;6.968;2024-01-15T04:20:34;1.80;99.90
56725;DHT22;42608;52.776;6.968;2024-01-15T04:23:00;1.80;99.90
56725;DHT22;42608;52.776;6.968;2024-01-15T04:25:26;1.80;99.90
56725;DHT22;42608;52.776;6.968;2024-01-15T04:27:51;1.80;99.90
56725;DHT22;42608;52.776;6.968;2024-01-15T04:30:17;1.80;99.90
56725;DHT22;42608;52.776;6.968;2024-01-15T04:32:42;1.80;99.90
56725;DHT22;42608;52.776;6.968;2024-01-15T04:35:08;1.80;99.90
56725;DHT22;42608;52.776;6.968;2024-01-15T04:37:33;1.80;99.90
56725;DHT22;42608;52.776;6.968;2024-01-15T04:39:59;1.80;99.90
56725;DHT22;42608;52.776;6.968;2024-01-15T04:42:24;1.80;99.90
56725;DHT22;42608;52.776;6.968;2024-01-15T04:44:50;1.80;99.90
56725;DHT22;42608;52.776;6.968;2024-01-15T04:47:15;1.70;99.90
56725;DHT22;42608;52.776;6.968;2024-01-15T04:49:42;1.70;99.90
56725;DHT22;42608;52.776;6.968;2024-01-15T04:52:07;1.70;99.90
56725;DHT22;42608;52.776;6.968;2024-01-15T04:54:35;1.70;99.90
56725;DHT22;42608;52.776;6.968;2024-01-15T04:57:01;1.70;99.90
56725;DHT22;42608;52.776;6.968;2024-01-15T04:59:27;1.70;99.90
56725;DHT22;42608;52.776;6.968;2024-01-15T05:01:53;1.70;99.90
56725;DHT22;42608;52.776;6.968;2024-01-15T05:04:19;1.80;99.90
56725;DHT22;42608;52.776;6.968;2024-01-15T05:06:44;1.70;99.90
56725;DHT22;42608;52.776;6.968;2024-01-15T05:09:10;1.70;99.90
56725;DHT22;42608;52.776;6.968;2024-01-15T05:11:35;1.70;99.90
56725;DHT22;42608;52.776;6.968;2024-01-15T05:14:01;1.80;99.90
56725;DHT22;42608;52.776;6.968;2024-01-15T05:16:26;1.70;99.90
56725;DHT22;42608;52.776;6.968;2024-01-15T05:18:52;1.80;99.90
56725;DHT22;42608;52.776;6.968;2024-01-15T05:21:17;1.80;99.90
56725;DHT22;42608;52.776;6.968;2024-01-15T05:23:43;1.80;99.90
56725;DHT22;42608;52.776;6.968;2024-01-15T05:26:08;1.80;99.90
56725;DHT22;42608;52.776;6.968;2024-01-15T05:28:34;1.80;99.90
56725;DHT22;42608;52.776;6.968;2024-01-15T05:31:00;1.70;99.90
56725;DHT22;42608;52.776;6.968;2024-01-15T05:33:25;1.70;99.90
56725;DHT22;42608;52.776;6.968;2024-01-15T05:35:51;1.70;99.90
56725;DHT22;42608;52.776;6.968;2024-01-15T05:38:17;1.70;99.90
56725;DHT22;42608;52.776;6.968;2024-01-15T05:40:42;1.70;99.90
56725;DHT22;42608;52.776;6.968;2024-01-15T05:43:08;1.70;99.90
56725;DHT22;42608;52.776;6.968;2024-01-15T05:45:34;1.70;99.90
56725;DHT22;42608;52.776;6.968;2024-01-15T05:48:03;1.70;99.90
56725;DHT22;42608;52.776;6.968;2024-01-15T05:50:29;1.70;99.90
56725;DHT22;42608;52.776;6.968;2024-01-15T05:52:54;1.70;99.90
56725;DHT22;42608;52.776;6.968;2024-01-15T05:55:20;1.60;99.90
56725;DHT22;42608;52.776;6.968;2024-01-15T05:57:46;1.60;99.90
56725;DHT22;42608;52.776;6.968;2024-01-15T06:00:11;1.60;99.90
56725;DHT22;42608;52.776;6.968;2024-01-15T06:02:37;1.60;99.90
56725;DHT22;42608;52.776;6.968;2024-01-15T06:05:03;1.60;99.90
56725;DHT22;42608;52.776;6.968;2024-01-15T06:07:29;1.60;99.90
56725;DHT22;42608;52.776;6.968;2024-01-15T06:09:54;1.60;99.90
56725;DHT22;42608;52.776;6.968;2024-01-15T06:12:22;1.60;99.90
56725;DHT22;42608;52.776;6.968;2024-01-15T06:14:48;1.60;99.90
56725;DHT22;42608;52.776;6.968;2024-01-15T06:17:13;1.60;99.90
56725;DHT22;42608;52.776;6.968;2024-01-15T06:19:42;1.60;99.90
56725;DHT22;42608;52.776;6.968;2024-01-15T06:22:07;1.60;99.90
56725;DHT22;42608;52.776;6.968;2024-01-15T06:24:33;1.50;99.90
56725;DHT22;42608;52.776;6.968;2024-01-15T06:26:59;1.50;99.90
56725;DHT22;42608;52.776;6.968;2024-01-15T06:29:25;1.50;99.90
56725;DHT22;42608;52.776;6.968;2024-01-15T06:31:51;1.40;99.90
56725;DHT22;42608;52.776;6.968;2024-01-15T06:34:16;1.40;99.90
56725;DHT22;42608;52.776;6.968;2024-01-15T06:36:42;1.40;99.90
56725;DHT22;42608;52.776;6.968;2024-01-15T06:39:10;1.30;99.90
56725;DHT22;42608;52.776;6.968;2024-01-15T06:41:36;1.30;99.90
56725;DHT22;42608;52.776;6.968;2024-01-15T06:44:09;1.30;99.90
56725;DHT22;42608;52.776;6.968;2024-01-15T06:46:35;1.30;99.90
56725;DHT22;42608;52.776;6.968;2024-01-15T06:49:01;1.30;99.90
56725;DHT22;42608;52.776;6.968;2024-01-15T06:51:27;1.20;99.90
56725;DHT22;42608;52.776;6.968;2024-01-15T06:53:53;1.20;99.90
56725;DHT22;42608;52.776;6.968;2024-01-15T06:56:19;1.20;99.90
56725;DHT22;42608;52.776;6.968;2024-01-15T06:58:44;1.20;99.90
56725;DHT22;42608;52.776;6.968;2024-01-15T07:01:10;1.20;99.90
56725;DHT22;42608;52.776;6.968;2024-01-15T07:03:35;1.20;99.90
56725;DHT22;42608;52.776;6.968;2024-01-15T07:06:01;1.20;99.90
56725;DHT22;42608;52.776;6.968;2024-01-15T07:08:27;1.20;99.90
56725;DHT22;42608;52.776;6.968;2024-01-15T07:10:52;1.10;99.90
56725;DHT22;42608;52.776;6.968;2024-01-15T07:13:18;1.20;99.90
56725;DHT22;42608;52.776;6.968;2024-01-15T07:15:43;1.20;99.90
56725;DHT22;42608;52.776;6.968;2024-01-15T07:18:09;1.10;99.90
56725;DHT22;42608;52.776;6.968;2024-01-15T07:20:35;1.10;99.90
56725;DHT22;42608;52.776;6.968;2024-01-15T07:23:00;1.10;99.90
56725;DHT22;42608;52.776;6.968;2024-01-15T07:25:26;1.10;99.90
56725;DHT22;42608;52.776;6.968;2024-01-15T07:27:51;1.10;99.90
56725;DHT22;42608;52.776;6.968;2024-01-15T07:30:19;1.10;99.90
56725;DHT22;42608;52.776;6.968;2024-01-15T07:32:47;1.10;99.90
56725;DHT22;42608;52.776;6.968;2024-01-15T07:35:16;1.10;99.90
56725;DHT22;42608;52.776;6.968;2024-01-15T07:37:42;1.20;99.90
56725;DHT22;42608;52.776;6.968;2024-01-15T07:40:07;1.20;99.90
56725;DHT22;42608;52.776;6.968;2024-01-15T07:42:34;1.20;99.90
56725;DHT22;42608;52.776;6.968;2024-01-15T07:44:59;1.20;99.90
56725;DHT22;42608;52.776;6.968;2024-01-15T07:47:26;1.20;99.90
56725;DHT22;42608;52.776;6.968;2024-01-15T07:49:52;1.20;99.90
56725;DHT22;42608;52.776;6.968;2024-01-15T07:52:17;1.20;99.90
56725;DHT22;42608;52.776;6.968;2024-01-15T07:54:43;1.20;99.90
56725;DHT22;42608;52.776;6.968;2024-01-15T07:57:10;1.20;99.90
56725;DHT22;42608;52.776;6.968;2024-01-15T07:59:35;1.20;99.90
56725;DHT22;42608;52.776;6.968;2024-01-15T08:02:01;1.20;99.90
56725;DHT22;42608;52.776;6.968;2024-01-15T08:04:27;1.10;99.90
56725;DHT22;42608;52.776;6.968;2024-01-15T08:06:52;1.10;99.90
56725;DHT22;42608;52.776;6.968;2024-01-15T08:09:18;1.10;99.90
56725;DHT22;42608;52.776;6.968;2024-01-15T08:11:44;1.00;99.90
56725;DHT22;42608;52.776;6.968;2024-01-15T08:14:09;1.00;99.90
56725;DHT22;42608;52.776;6.968;2024-01-15T08:16:38;1.00;99.90
56725;DHT22;42608;52.776;6.968;2024-01-15T08:19:04;1.00;99.90
56725;DHT22;42608;52.776;6.968;2024-01-15T08:21:29;1.00;99.90
56725;DHT22;42608;52.776;6.968;2024-01-15T08:24:00;1.00;99.90
56725;DHT22;42608;52.776;6.968;2024-01-15T08:26:27;1.00;99.90
56725;DHT22;42608;52.776;6.968;2024-01-15T08:28:53;1.00;99.90
56725;DHT22;42608;52.776;6.968;2024-01-15T08:31:19;1.00;99.90
56725;DHT22;42608;52.776;6.968;2024-01-15T08:33:44;1.00;99.90
56725;DHT22;42608;52.776;6.968;2024-01-15T08:36:10;1.00;99.90
56725;DHT22;42608;52.776;6.968;2024-01-15T08:38:36;1.00;99.90
56725;DHT22;42608;52.776;6.968;2024-01-15T08:41:01;1.00;99.90
56725;DHT22;42608;52.776;6.968;2024-01-15T08:43:27;1.00;99.90
56725;DHT22;42608;52.776;6.968;2024-01-15T08:45:53;1.00;99.90
56725;DHT22;42608;52.776;6.968;2024-01-15T08:48:18;1.00;99.90
56725;DHT22;42608;52.776;6.968;2024-01-15T08:50:44;1.00;99.90
56725;DHT22;42608;52.776;6.968;2024-01-15T08:53:12;1.10;99.90
56725;DHT22;42608;52.776;6.968;2024-01-15T08:55:38;1.10;99.90
56725;DHT22;42608;52.776;6.968;2024-01-15T08:58:04;1.10;99.90
56725;DHT22;42608;52.776;6.968;2024-01-15T09:00:29;1.10;99.90
56725;DHT22;42608;52.776;6.968;2024-01-15T09:02:55;1.20;99.90
56725;DHT22;42608;52.776;6.968;2024-01-15T09:05:22;1.20;99.90
56725;DHT22;42608;52.776;6.968;2024-01-15T09:07:47;1.20;99.90
56725;DHT22;42608;52.776;6.968;2024-01-15T09:10:13;1.20;99.90
56725;DHT22;42608;52.776;6.968;2024-01-15T09:12:39;1.30;99.90
56725;DHT22;42608;52.776;6.968;2024-01-15T09:15:04;1.30;99.90
56725;DHT22;42608;52.776;6.968;2024-01-15T09:17:31;1.30;99.90
56725;DHT22;42608;52.776;6.968;2024-01-15T09:19:59;1.30;99.90
56725;DHT22;42608;52.776;6.968;2024-01-15T09:22:25;1.30;99.90
56725;DHT22;42608;52.776;6.968;2024-01-15T09:24:51;1.30;99.90
56725;DHT22;42608;52.776;6.968;2024-01-15T09:27:16;1.30;99.90
56725;DHT22;42608;52.776;6.968;2024-01-15T09:29:42;1.40;99.90
56725;DHT22;42608;52.776;6.968;2024-01-15T09:32:11;1.40;99.90
56725;DHT22;42608;52.776;6.968;2024-01-15T09:34:37;1.50;99.90
56725;DHT22;42608;52.776;6.968;2024-01-15T09:37:03;1.50;99.90
56725;DHT22;42608;52.776;6.968;2024-01-15T09:39:29;1.50;99.90
56725;DHT22;42608;52.776;6.968;2024-01-15T09:41:56;1.60;99.90
56725;DHT22;42608;52.776;6.968;2024-01-15T09:44:21;1.60;99.90
56725;DHT22;42608;52.776;6.968;2024-01-15T09:46:47;1.70;99.90
56725;DHT22;42608;52.776;6.968;2024-01-15T09:49:16;1.70;99.90
56725;DHT22;42608;52.776;6.968;2024-01-15T09:51:42;1.70;99.90
56725;DHT22;42608;52.776;6.968;2024-01-15T09:54:10;1.70;99.90
56725;DHT22;42608;52.776;6.968;2024-01-15T09:56:38;1.70;99.90
56725;DHT22;42608;52.776;6.968;2024-01-15T09:59:04;1.70;99.90
56725;DHT22;42608;52.776;6.968;2024-01-15T10:01:31;1.80;99.90
56725;DHT22;42608;52.776;6.968;2024-01-15T10:03:57;1.80;99.90
56725;DHT22;42608;52.776;6.968;2024-01-15T10:06:23;1.80;99.90
56725;DHT22;42608;52.776;6.968;2024-01-15T10:08:49;1.90;99.90
56725;DHT22;42608;52.776;6.968;2024-01-15T10:11:15;1.90;99.90
56725;DHT22;42608;52.776;6.968;2024-01-15T10:13:44;1.90;99.90
56725;DHT22;42608;52.776;6.968;2024-01-15T10:16:10;2.00;99.90
56725;DHT22;42608;52.776;6.968;2024-01-15T10:18:36;2.00;99.90
56725;DHT22;42608;52.776;6.968;2024-01-15T10:21:08;2.00;99.90
56725;DHT22;42608;52.776;6.968;2024-01-15T10:23:33;2.10;99.90
56725;DHT22;42608;52.776;6.968;2024-01-15T10:25:59;2.10;99.90
56725;DHT22;42608;52.776;6.968;2024-01-15T10:28:28;2.20;99.90
56725;DHT22;42608;52.776;6.968;2024-01-15T10:30:56;2.20;99.90
56725;DHT22;42608;52.776;6.968;2024-01-15T10:33:22;2.20;99.90
56725;DHT22;42608;52.776;6.968;2024-01-15T10:35:53;2.30;99.90
56725;DHT22;42608;52.776;6.968;2024-01-15T10:38:19;2.20;99.90
56725;DHT22;42608;52.776;6.968;2024-01-15T10:40:54;2.10;99.90
56725;DHT22;42608;52.776;6.968;2024-01-15T10:43:19;2.10;99.90
56725;DHT22;42608;52.776;6.968;2024-01-15T10:45:45;2.20;99.90
56725;DHT22;42608;52.776;6.968;2024-01-15T10:48:11;2.20;99.90
56725;DHT22;42608;52.776;6.968;2024-01-15T10:50:37;2.30;99.90
56725;DHT22;42608;52.776;6.968;2024-01-15T10:53:03;2.30;99.90
56725;DHT22;42608;52.776;6.968;2024-01-15T10:55:29;2.30;99.90
56725;DHT22;42608;52.776;6.968;2024-01-15T10:57:55;2.30;99.90
56725;DHT22;42608;52.776;6.968;2024-01-15T11:00:22;2.30;99.90
56725;DHT22;42608;52.776;6.968;2024-01-15T11:02:48;2.30;99.90
56725;DHT22;42608;52.776;6.968;2024-01-15T11:05:13;2.40;99.90
56725;DHT22;42608;52.776;6.968;2024-01-15T11:07:39;2.40;99.90
56725;DHT22;42608;52.776;6.968;2024-01-15T11:10:05;2.40;99.90
56725;DHT22;42608;52.776;6.968;2024-01-15T11:12:31;2.40;99.90
56725;DHT22;42608;52.776;6.968;2024-01-15T11:15:02;2.40;99.90
56725;DHT22;42608;52.776;6.968;2024-01-15T11:20:18;2.40;99.90
56725;DHT22;42608;52.776;6.968;2024-01-15T11:22:47;2.40;99.90
56725;DHT22;42608;52.776;6.968;2024-01-15T11:25:13;2.40;99.90
56725;DHT22;42608;52.776;6.968;2024-01-15T11:27:43;2.40;99.90
56725;DHT22;42608;52.776;6.968;2024-01-15T11:30:09;2.50;99.90
56725;DHT22;42608;52.776;6.968;2024-01-15T11:32:38;2.50;99.90
56725;DHT22;42608;52.776;6.968;2024-01-15T11:35:08;2.50;99.90
56725;DHT22;42608;52.776;6.968;2024-01-15T11:40:20;2.50;99.90
56725;DHT22;42608;52.776;6.968;2024-01-15T11:42:47;2.40;99.90
56725;DHT22;42608;52.776;6.968;2024-01-15T11:45:13;2.40;99.90
56725;DHT22;42608;52.776;6.968;2024-01-15T11:50:23;2.30;99.90
56725;DHT22;42608;52.776;6.968;2024-01-15T11:52:53;2.30;99.90
56725;DHT22;42608;52.776;6.968;2024-01-15T11:57:50;2.30;99.90
56725;DHT22;42608;52.776;6.968;2024-01-15T12:00:16;2.40;99.90
56725;DHT22;42608;52.776;6.968;2024-01-15T12:02:42;2.40;99.90
56725;DHT22;42608;52.776;6.968;2024-01-15T12:05:11;2.40;99.90
56725;DHT22;42608;52.776;6.968;2024-01-15T12:07:38;2.40;99.90
56725;DHT22;42608;52.776;6.968;2024-01-15T12:10:07;2.50;99.90
56725;DHT22;42608;52.776;6.968;2024-01-15T12:12:37;2.50;99.90
56725;DHT22;42608;52.776;6.968;2024-01-15T12:15:04;2.50;99.90
56725;DHT22;42608;52.776;6.968;2024-01-15T12:17:30;2.60;99.90
56725;DHT22;42608;52.776;6.968;2024-01-15T12:19:56;2.60;99.90
56725;DHT22;42608;52.776;6.968;2024-01-15T12:22:22;2.60;99.90
56725;DHT22;42608;52.776;6.968;2024-01-15T12:24:47;2.50;99.90
56725;DHT22;42608;52.776;6.968;2024-01-15T12:27:13;2.50;99.90
56725;DHT22;42608;52.776;6.968;2024-01-15T12:29:39;2.40;99.90
56725;DHT22;42608;52.776;6.968;2024-01-15T12:32:04;2.30;99.90
56725;DHT22;42608;52.776;6.968;2024-01-15T12:34:30;2.10;99.90
56725;DHT22;42608;52.776;6.968;2024-01-15T12:36:57;1.90;99.90
56725;DHT22;42608;52.776;6.968;2024-01-15T12:39:24;1.80;99.90
56725;DHT22;42608;52.776;6.968;2024-01-15T12:41:49;1.70;99.90
56725;DHT22;42608;52.776;6.968;2024-01-15T12:44:15;1.70;99.90
56725;DHT22;42608;52.776;6.968;2024-01-15T12:46:40;1.60;99.90
56725;DHT22;42608;52.776;6.968;2024-01-15T12:49:07;1.50;99.90
56725;DHT22;42608;52.776;6.968;2024-01-15T12:51:34;1.40;99.90
56725;DHT22;42608;52.776;6.968;2024-01-15T12:54:02;1.40;99.90
56725;DHT22;42608;52.776;6.968;2024-01-15T12:56:28;1.40;99.90
56725;DHT22;42608;52.776;6.968;2024-01-15T12:58:53;1.40;99.90
56725;DHT22;42608;52.776;6.968;2024-01-15T13:01:19;1.40;99.90
56725;DHT22;42608;52.776;6.968;2024-01-15T13:03:45;1.30;99.90
56725;DHT22;42608;52.776;6.968;2024-01-15T13:06:10;1.40;99.90
56725;DHT22;42608;52.776;6.968;2024-01-15T13:08:36;1.40;99.90
56725;DHT22;42608;52.776;6.968;2024-01-15T13:11:03;1.40;99.90
56725;DHT22;42608;52.776;6.968;2024-01-15T13:13:28;1.40;99.90
56725;DHT22;42608;52.776;6.968;2024-01-15T13:15:57;1.40;99.90
56725;DHT22;42608;52.776;6.968;2024-01-15T13:18:23;1.40;99.90
56725;DHT22;42608;52.776;6.968;2024-01-15T13:20:48;1.50;99.90
56725;DHT22;42608;52.776;6.968;2024-01-15T13:23:15;1.50;99.90
56725;DHT22;42608;52.776;6.968;2024-01-15T13:25:40;1.50;99.90
56725;DHT22;42608;52.776;6.968;2024-01-15T13:28:06;1.50;99.90
56725;DHT22;42608;52.776;6.968;2024-01-15T13:30:31;1.50;99.90
56725;DHT22;42608;52.776;6.968;2024-01-15T13:32:57;1.50;99.90
56725;DHT22;42608;52.776;6.968;2024-01-15T13:35:24;1.50;99.90
56725;DHT22;42608;52.776;6.968;2024-01-15T13:37:50;1.50;99.90
56725;DHT22;42608;52.776;6.968;2024-01-15T13:40:18;1.50;99.90
56725;DHT22;42608;52.776;6.968;2024-01-15T13:42:45;1.50;99.90
56725;DHT22;42608;52.776;6.968;2024-01-15T13:45:11;1.60;99.90
56725;DHT22;42608;52.776;6.968;2024-01-15T13:47:42;1.60;99.90
56725;DHT22;42608;52.776;6.968;2024-01-15T13:50:11;1.60;99.90
56725;DHT22;42608;52.776;6.968;2024-01-15T13:52:37;1.60;99.90
56725;DHT22;42608;52.776;6.968;2024-01-15T13:55:03;1.70;99.90
56725;DHT22;42608;52.776;6.968;2024-01-15T13:57:30;1.80;99.90
56725;DHT22;42608;52.776;6.968;2024-01-15T13:59:56;1.90;99.90
56725;DHT22;42608;52.776;6.968;2024-01-15T14:02:21;2.00;99.90
56725;DHT22;42608;52.776;6.968;2024-01-15T14:04:47;2.00;99.90
56725;DHT22;42608;52.776;6.968;2024-01-15T14:07:13;2.10;99.90
56725;DHT22;42608;52.776;6.968;2024-01-15T14:09:38;2.10;99.90
56725;DHT22;42608;52.776;6.968;2024-01-15T14:12:04;2.00;99.90
56725;DHT22;42608;52.776;6.968;2024-01-15T14:14:33;2.00;99.90
56725;DHT22;42608;52.776;6.968;2024-01-15T14:16:59;2.00;99.90
56725;DHT22;42608;52.776;6.968;2024-01-15T14:19:24;2.00;99.90
56725;DHT22;42608;52.776;6.968;2024-01-15T14:21:50;2.00;99.90
56725;DHT22;42608;52.776;6.968;2024-01-15T14:24:15;1.90;99.90
56725;DHT22;42608;52.776;6.968;2024-01-15T14:26:42;1.90;99.90
56725;DHT22;42608;52.776;6.968;2024-01-15T14:29:08;1.90;99.90
56725;DHT22;42608;52.776;6.968;2024-01-15T14:31:33;1.80;99.90
56725;DHT22;42608;52.776;6.968;2024-01-15T14:33:59;1.80;99.90
56725;DHT22;42608;52.776;6.968;2024-01-15T14:36:25;1.70;99.90
56725;DHT22;42608;52.776;6.968;2024-01-15T14:38:51;1.70;99.90
56725;DHT22;42608;52.776;6.968;2024-01-15T14:41:16;1.70;99.90
56725;DHT22;42608;52.776;6.968;2024-01-15T14:43:42;1.70;99.90
56725;DHT22;42608;52.776;6.968;2024-01-15T14:46:07;1.70;99.90
56725;DHT22;42608;52.776;6.968;2024-01-15T14:48:33;1.70;99.90
56725;DHT22;42608;52.776;6.968;2024-01-15T14:51:02;1.70;99.90
56725;DHT22;42608;52.776;6.968;2024-01-15T14:53:28;1.70;99.90
56725;DHT22;42608;52.776;6.968;2024-01-15T14:55:54;1.70;99.90
56725;DHT22;42608;52.776;6.968;2024-01-15T14:58:19;1.70;99.90
56725;DHT22;42608;52.776;6.968;2024-01-15T15:00:45;1.70;99.90
56725;DHT22;42608;52.776;6.968;2024-01-15T15:03:11;1.70;99.90
56725;DHT22;42608;52.776;6.968;2024-01-15T15:05:39;1.70;99.90
56725;DHT22;42608;52.776;6.968;2024-01-15T15:08:05;1.60;99.90
56725;DHT22;42608;52.776;6.968;2024-01-15T15:10:34;1.60;99.90
56725;DHT22;42608;52.776;6.968;2024-01-15T15:13:01;1.60;99.90
56725;DHT22;42608;52.776;6.968;2024-01-15T15:15:26;1.50;99.90
56725;DHT22;42608;52.776;6.968;2024-01-15T15:17:52;1.50;99.90
56725;DHT22;42608;52.776;6.968;2024-01-15T15:20:17;1.50;99.90
56725;DHT22;42608;52.776;6.968;2024-01-15T15:22:44;1.50;99.90
56725;DHT22;42608;52.776;6.968;2024-01-15T15:25:12;1.40;99.90
56725;DHT22;42608;52.776;6.968;2024-01-15T15:27:38;1.40;99.90
56725;DHT22;42608;52.776;6.968;2024-01-15T15:30:06;1.50;99.90
56725;DHT22;42608;52.776;6.968;2024-01-15T15:32:31;1.50;99.90
56725;DHT22;42608;52.776;6.968;2024-01-15T15:34:58;1.50;99.90
56725;DHT22;42608;52.776;6.968;2024-01-15T15:37:23;1.50;99.90
56725;DHT22;42608;52.776;6.968;2024-01-15T15:39:49;1.50;99.90
56725;DHT22;42608;52.776;6.968;2024-01-15T15:42:15;1.50;99.90
56725;DHT22;42608;52.776;6.968;2024-01-15T15:44:40;1.50;99.90
56725;DHT22;42608;52.776;6.968;2024-01-15T15:47:12;1.60;99.90